createdAt,value
2022-10-02T00:02:27.993Z,101041.00
2022-10-02T00:07:42.713Z,101033.53
2022-10-02T00:12:45.639Z,101042.81
2022-10-02T00:17:48.780Z,101040.75
2022-10-02T00:23:04.717Z,101042.84
2022-10-02T00:28:12.222Z,101052.19
2022-10-02T00:33:36.557Z,101030.03
2022-10-02T00:38:42.676Z,101035.56
2022-10-02T00:44:02.900Z,101043.84
2022-10-02T00:49:20.147Z,101045.19
2022-10-02T00:54:27.810Z,101053.25
2022-10-02T00:59:29.111Z,101054.06
2022-10-02T01:04:33.166Z,101060.13
2022-10-02T01:09:34.827Z,101064.00
2022-10-02T01:14:37.497Z,101064.59
2022-10-02T01:19:40.712Z,101071.00
2022-10-02T01:24:47.936Z,101071.00
2022-10-02T01:29:52.235Z,101075.03
2022-10-02T01:34:54.125Z,101072.34
2022-10-02T01:39:58.432Z,101083.69
2022-10-02T01:44:59.984Z,101076.88
2022-10-02T01:50:07.202Z,101058.38
2022-10-02T01:55:20.591Z,101057.94
2022-10-02T02:00:24.525Z,101065.31
2022-10-02T02:05:26.204Z,101078.94
2022-10-02T02:10:38.464Z,101075.69
2022-10-02T02:15:43.596Z,101073.53
2022-10-02T02:20:47.946Z,101068.41
2022-10-02T02:25:50.819Z,101071.47
2022-10-02T02:30:54.637Z,101073.28
2022-10-02T02:35:58.488Z,101072.28
2022-10-02T02:41:03.162Z,101053.78
2022-10-02T02:46:12.176Z,101050.38
2022-10-02T02:51:17.056Z,101056.94
2022-10-02T02:56:19.255Z,101059.03
2022-10-02T03:01:20.876Z,101064.50
2022-10-02T03:06:26.453Z,101076.66
2022-10-02T03:11:52.415Z,101060.31
2022-10-02T03:17:12.431Z,101063.81
2022-10-02T03:22:13.724Z,101059.66
2022-10-02T03:27:36.668Z,101074.16
2022-10-02T03:32:39.354Z,101071.72
2022-10-02T03:37:45.819Z,101067.34
2022-10-02T03:42:47.152Z,101058.75
2022-10-02T03:47:48.512Z,101070.66
2022-10-02T03:52:51.451Z,101071.03
2022-10-02T03:57:54.262Z,101069.47
2022-10-02T04:02:58.752Z,101069.13
2022-10-02T04:08:02.178Z,101053.50
2022-10-02T04:13:11.958Z,101066.00
2022-10-02T04:18:20.793Z,101068.44
2022-10-02T04:23:37.804Z,101068.06
2022-10-02T04:28:42.324Z,101064.81
2022-10-02T04:33:43.690Z,101066.50
2022-10-02T04:39:03.514Z,101067.31
2022-10-02T04:44:23.624Z,101070.56
2022-10-02T04:49:24.911Z,101077.41
2022-10-02T04:54:32.323Z,101073.41
2022-10-02T04:59:59.471Z,101079.53
2022-10-02T05:05:21.028Z,101081.31
2022-10-02T05:10:29.692Z,101090.44
2022-10-02T05:15:43.899Z,101093.72
2022-10-02T05:20:55.771Z,101092.31
2022-10-02T05:26:14.184Z,101088.59
2022-10-02T05:31:28.208Z,101082.50
2022-10-02T05:36:41.065Z,101088.53
2022-10-02T05:41:48.539Z,101081.50
2022-10-02T05:46:57.679Z,101087.72
2022-10-02T05:52:13.581Z,101084.31
2022-10-02T05:57:36.012Z,101098.41
2022-10-02T06:03:01.637Z,101099.91
2022-10-02T06:08:04.086Z,101093.13
2022-10-02T06:13:08.729Z,101098.59
2022-10-02T06:18:14.823Z,101100.03
2022-10-02T06:23:25.251Z,101106.13
2022-10-02T06:28:32.001Z,101110.84
2022-10-02T06:33:33.514Z,101113.94
2022-10-02T06:38:48.608Z,101116.38
2022-10-02T06:44:00.029Z,101126.69
2022-10-02T06:49:10.515Z,101127.78
2022-10-02T06:54:30.970Z,101135.13
2022-10-02T06:59:38.266Z,101152.09
2022-10-02T07:04:42.796Z,101143.47
2022-10-02T07:09:44.134Z,101152.59
2022-10-02T07:15:15.264Z,101157.47
2022-10-02T07:20:29.648Z,101159.50
2022-10-02T07:25:50.473Z,101160.97
2022-10-02T07:31:09.671Z,101166.44
2022-10-02T07:36:34.568Z,101166.44
2022-10-02T07:41:47.311Z,101173.94
2022-10-02T07:47:07.291Z,101167.31
2022-10-02T07:52:24.527Z,101167.34
2022-10-02T07:57:26.157Z,101176.66
2022-10-02T08:02:34.455Z,101173.00
2022-10-02T08:07:36.135Z,101184.97
2022-10-02T08:12:44.001Z,101187.56
2022-10-02T08:17:50.578Z,101199.09
2022-10-02T08:22:58.081Z,101198.91
2022-10-02T08:28:05.536Z,101192.50
2022-10-02T08:33:18.963Z,101200.31
2022-10-02T08:38:28.068Z,101206.56
2022-10-02T08:43:56.048Z,101203.94
2022-10-02T08:48:58.248Z,101197.66
2022-10-02T08:54:18.077Z,101193.25
2022-10-02T08:59:26.542Z,101193.44
2022-10-02T09:04:45.069Z,101194.22
2022-10-02T09:09:59.827Z,101189.91
2022-10-02T09:15:03.926Z,101185.38
2022-10-02T09:20:11.379Z,101185.38
2022-10-02T09:25:22.455Z,101184.66
2022-10-02T09:30:30.716Z,101189.38
2022-10-02T09:35:50.476Z,101196.28
2022-10-02T09:41:10.775Z,101182.94
2022-10-02T09:46:31.165Z,101194.50
2022-10-02T09:51:42.408Z,101193.69
2022-10-02T09:57:02.423Z,101195.66
2022-10-02T10:02:13.081Z,101186.00
2022-10-02T10:07:17.325Z,101201.91
2022-10-02T10:12:36.363Z,101202.09
2022-10-02T10:17:56.707Z,101214.50
2022-10-02T10:23:05.644Z,101218.31
2022-10-02T10:28:25.383Z,101220.28
2022-10-02T10:33:40.263Z,101223.16
2022-10-02T10:38:49.554Z,101232.34
2022-10-02T10:44:09.407Z,101239.38
2022-10-02T10:49:13.892Z,101244.16
2022-10-02T10:54:34.063Z,101262.75
2022-10-02T10:59:44.782Z,101256.38
2022-10-02T11:04:52.725Z,101244.94
2022-10-02T11:09:54.041Z,101249.72
2022-10-02T11:15:13.686Z,101246.84
2022-10-02T11:20:21.162Z,101251.09
2022-10-02T11:26:01.177Z,101258.84
2022-10-02T11:31:02.805Z,101264.41
2022-10-02T11:36:19.195Z,101280.19
2022-10-02T11:41:32.712Z,101286.84
2022-10-02T11:46:53.427Z,101275.38
2022-10-02T11:51:54.711Z,101273.09
2022-10-02T11:57:16.521Z,101274.03
2022-10-02T12:02:22.909Z,101278.03
2022-10-02T12:07:24.286Z,101284.91
2022-10-02T12:12:43.838Z,101273.56
2022-10-02T12:18:03.932Z,101280.19
2022-10-02T12:23:37.351Z,101282.41
2022-10-02T12:28:45.232Z,101283.75
2022-10-02T12:33:58.210Z,101286.50
2022-10-02T12:39:04.050Z,101287.97
2022-10-02T12:44:05.384Z,101273.97
2022-10-02T12:49:14.271Z,101266.88
2022-10-02T12:54:33.354Z,101284.56
2022-10-02T12:59:41.606Z,101289.97
2022-10-02T13:05:03.383Z,101290.75
2022-10-02T13:10:05.169Z,101295.13
2022-10-02T13:15:15.713Z,101291.66
2022-10-02T13:20:26.237Z,101283.53
2022-10-02T13:25:39.095Z,101287.72
2022-10-02T13:30:48.084Z,101279.97
2022-10-02T13:35:49.384Z,101276.19
2022-10-02T13:40:58.054Z,101272.69
2022-10-02T13:46:03.844Z,101279.25
2022-10-02T13:51:13.679Z,101282.44
2022-10-02T13:56:21.057Z,101282.31
2022-10-02T14:01:25.507Z,101288.97
2022-10-02T14:06:29.859Z,101285.09
2022-10-02T14:11:31.152Z,101290.66
2022-10-02T14:16:32.749Z,101290.28
2022-10-02T14:21:40.550Z,101293.97
2022-10-02T14:26:44.770Z,101293.66
2022-10-02T14:32:04.975Z,101315.56
2022-10-02T14:55:29.823Z,101316.34
2022-10-02T15:00:39.165Z,101322.31
2022-10-02T15:05:43.340Z,101327.97
2022-10-02T15:10:46.104Z,101323.00
2022-10-02T15:16:13.131Z,101318.34
2022-10-02T15:21:17.401Z,101320.66
2022-10-02T15:26:54.280Z,101323.13
2022-10-02T15:32:01.559Z,101323.22
2022-10-02T15:37:26.379Z,101326.88
2022-10-02T15:42:50.090Z,101332.00
2022-10-02T15:48:10.541Z,101336.25
2022-10-02T15:53:15.134Z,101345.44
2022-10-02T15:58:35.134Z,101344.63
2022-10-02T16:03:46.547Z,101343.25
2022-10-02T16:09:09.248Z,101357.63
2022-10-02T16:14:19.690Z,101363.31
2022-10-02T16:19:37.005Z,101363.31
2022-10-02T16:24:44.261Z,101369.97
2022-10-02T16:30:22.898Z,101379.03
2022-10-02T16:35:25.149Z,101383.25
2022-10-02T16:40:29.523Z,101397.47
2022-10-02T16:45:36.886Z,101396.81
2022-10-02T16:50:44.414Z,101401.38
2022-10-02T16:55:50.786Z,101415.84
2022-10-02T17:01:04.153Z,101425.72
2022-10-02T17:06:27.082Z,101436.53
2022-10-02T17:11:47.083Z,101454.22
2022-10-02T17:16:55.776Z,101462.34
2022-10-02T17:22:11.356Z,101477.28
2022-10-02T17:27:31.501Z,101484.06
2022-10-02T17:32:53.065Z,101499.06
2022-10-02T17:38:12.682Z,101506.16
2022-10-02T17:43:22.268Z,101516.94
2022-10-02T17:48:32.815Z,101528.69
2022-10-02T17:54:16.230Z,101536.47
2022-10-02T17:59:26.087Z,101546.38
2022-10-02T18:04:33.120Z,101563.03
2022-10-02T18:09:43.783Z,101565.78
2022-10-02T18:14:54.839Z,101583.19
2022-10-02T18:20:03.420Z,101577.75
2022-10-02T18:25:23.250Z,101587.63
2022-10-02T18:30:43.338Z,101593.00
2022-10-02T18:35:50.938Z,101600.03
2022-10-02T18:40:55.868Z,101600.41
2022-10-02T18:46:03.168Z,101615.03
2022-10-02T18:51:13.337Z,101621.94
2022-10-02T18:56:22.162Z,101625.19
2022-10-02T19:01:39.240Z,101633.50
2022-10-02T19:06:49.887Z,101647.47
2022-10-02T19:11:58.208Z,101651.44
2022-10-02T19:17:01.168Z,101655.69
2022-10-02T19:22:11.123Z,101666.09
2022-10-02T19:27:23.129Z,101667.38
2022-10-02T19:32:25.149Z,101676.38
2022-10-02T19:37:26.984Z,101683.75
2022-10-02T19:42:29.819Z,101690.50
2022-10-02T19:47:46.237Z,101694.09
2022-10-02T19:52:53.304Z,101711.88
2022-10-02T19:58:04.476Z,101717.78
2022-10-02T20:03:08.174Z,101719.75
2022-10-02T20:08:32.769Z,101729.03
2022-10-02T20:13:39.027Z,101735.56
2022-10-02T20:18:40.480Z,101735.09
2022-10-02T20:23:45.234Z,101738.00
2022-10-02T20:28:58.959Z,101755.94
2022-10-02T20:34:01.531Z,101755.28
2022-10-02T20:39:09.712Z,101758.38
2022-10-02T20:44:12.769Z,101774.25
2022-10-02T20:49:33.940Z,101773.25
2022-10-02T20:54:56.260Z,101779.78
2022-10-02T21:00:03.534Z,101781.75
2022-10-02T21:05:07.718Z,101789.09
2022-10-02T21:10:15.338Z,101791.53
2022-10-02T21:15:35.415Z,101802.63
2022-10-02T21:20:51.941Z,101819.41
2022-10-02T21:26:06.195Z,101809.81
2022-10-02T21:31:19.128Z,101829.38
2022-10-02T21:36:33.671Z,101843.56
2022-10-02T21:41:48.621Z,101850.84
2022-10-02T21:47:04.996Z,101848.59
2022-10-02T21:52:15.577Z,101861.06
2022-10-02T21:57:16.871Z,101870.41
2022-10-02T22:02:21.374Z,101871.53
2022-10-02T22:07:44.068Z,101882.16
2022-10-02T22:12:50.505Z,101877.75
2022-10-02T22:18:00.544Z,101880.97
2022-10-02T22:23:04.885Z,101898.53
2022-10-02T22:28:18.493Z,101907.28
2022-10-02T22:33:19.883Z,101910.13
2022-10-02T22:38:30.973Z,101918.28
2022-10-02T22:43:44.585Z,101919.81
2022-10-02T22:48:55.606Z,101922.09
2022-10-02T22:54:05.135Z,101932.38
2022-10-02T22:59:12.411Z,101929.63
2022-10-02T23:04:25.118Z,101926.41
2022-10-02T23:09:43.619Z,101937.47
2022-10-02T23:15:19.629Z,101948.09
2022-10-02T23:20:31.208Z,101958.66
2022-10-02T23:25:46.093Z,101957.34
2022-10-02T23:31:06.330Z,101953.38
2022-10-02T23:36:20.331Z,101958.16
2022-10-02T23:41:47.049Z,101959.41
2022-10-02T23:46:51.454Z,101954.47
2022-10-02T23:51:52.757Z,101954.38
2022-10-02T23:57:12.872Z,101958.66
